Time;durP1;ratioP1;P1;durP2;ratioP2;P2;SDS_P1;SDS_P2;PMS_P1;PMS_P2;Temp;Humidity;BMP_temperature;BMP_pressure;BME280_temperature;BME280_humidity;BME280_pressure;Samples;Min_cycle;Max_cycle;Signal;HPM_P1;HPM_P2
2021/03/21 00:01:42;;;;;;;0.47;0.47;;;18.10;50.20;;;;;;4864382;29;20177;-75
2021/03/21 00:04:07;;;;;;;0.90;0.30;;;18.10;50.20;;;;;;4896237;29;20212;-74
2021/03/21 00:06:33;;;;;;;0.43;0.43;;;18.10;50.30;;;;;;4880640;29;20638;-76
2021/03/21 00:08:58;;;;;;;0.40;0.40;;;18.10;50.30;;;;;;4895705;29;20188;-73
2021/03/21 00:11:24;;;;;;;0.50;0.50;;;18.10;50.30;;;;;;4897508;29;20528;-73
2021/03/21 00:13:49;;;;;;;0.60;0.60;;;18.10;50.30;;;;;;4897349;29;20212;-71
2021/03/21 00:16:15;;;;;;;0.40;0.40;;;18.00;50.30;;;;;;4895664;29;20181;-72
2021/03/21 00:18:41;;;;;;;0.95;0.60;;;18.00;50.30;;;;;;4896077;29;20546;-70
2021/03/21 00:21:08;;;;;;;0.43;0.43;;;18.00;50.30;;;;;;4880576;29;20196;-74
2021/03/21 00:23:34;;;;;;;0.65;0.50;;;18.00;50.30;;;;;;4879620;29;20228;-74
2021/03/21 00:26:00;;;;;;;0.98;0.77;;;18.00;50.30;;;;;;4896093;29;20180;-76
2021/03/21 00:28:27;;;;;;;0.60;0.60;;;17.90;50.30;;;;;;4896013;29;20192;-76
2021/03/21 00:30:53;;;;;;;0.77;0.60;;;18.00;50.30;;;;;;4895494;29;20169;-76
2021/03/21 00:33:21;;;;;;;0.50;0.50;;;18.00;50.30;;;;;;4895934;29;20197;-71
2021/03/21 00:35:47;;;;;;;0.40;0.40;;;17.90;50.30;;;;;;4864890;29;20220;-74
2021/03/21 00:38:22;;;;;;;0.47;0.47;;;17.90;50.30;;;;;;4879855;29;20585;-73
2021/03/21 00:40:48;;;;;;;0.77;0.57;;;17.90;50.30;;;;;;4896142;29;20256;-71
2021/03/21 00:43:14;;;;;;;1.55;0.52;;;17.90;50.30;;;;;;4896944;29;20241;-70
2021/03/21 00:45:39;;;;;;;0.60;0.60;;;17.90;50.40;;;;;;4895602;29;20696;-73
2021/03/21 00:48:19;;;;;;;0.57;0.50;;;17.90;50.30;;;;;;4897086;29;20658;-76
2021/03/21 00:50:45;;;;;;;0.38;0.38;;;17.90;50.40;;;;;;4895662;29;20164;-74
2021/03/21 00:53:11;;;;;;;0.55;0.50;;;17.90;50.40;;;;;;4897001;29;20661;-76
2021/03/21 00:55:37;;;;;;;0.55;0.55;;;17.90;50.40;;;;;;4895554;29;20574;-75
2021/03/21 00:58:03;;;;;;;0.73;0.47;;;17.80;50.30;;;;;;4881075;29;20216;-69
2021/03/21 01:00:36;;;;;;;0.60;0.60;;;17.80;50.30;;;;;;4899329;29;20185;-77
2021/03/21 01:03:02;;;;;;;0.47;0.40;;;17.80;50.30;;;;;;4899363;29;20267;-75
2021/03/21 01:05:28;;;;;;;1.40;0.50;;;17.80;50.40;;;;;;4898509;29;20260;-76
2021/03/21 01:07:54;;;;;;;0.40;0.40;;;17.80;50.40;;;;;;4900370;29;20263;-74
2021/03/21 01:10:26;;;;;;;0.50;0.50;;;17.80;50.40;;;;;;4899102;29;20588;-72
2021/03/21 01:12:55;;;;;;;0.40;0.40;;;17.80;50.50;;;;;;4898593;29;20547;-72
2021/03/21 01:15:22;;;;;;;0.50;0.50;;;17.80;50.40;;;;;;4898811;29;20215;-72
2021/03/21 01:17:48;;;;;;;0.60;0.60;;;17.70;51.00;;;;;;4883500;29;20188;-68
2021/03/21 01:20:13;;;;;;;0.40;0.40;;;17.70;50.40;;;;;;4882840;29;20556;-74
2021/03/21 01:22:39;;;;;;;0.60;0.60;;;17.70;50.40;;;;;;4883125;29;20648;-73
2021/03/21 01:25:05;;;;;;;0.85;0.60;;;17.70;50.40;;;;;;4899962;29;20177;-74
2021/03/21 01:27:31;;;;;;;0.40;0.40;;;17.70;50.40;;;;;;4899527;29;20326;-74
2021/03/21 01:29:56;;;;;;;0.80;0.50;;;17.70;51.10;;;;;;4900051;29;20700;-75
2021/03/21 01:32:22;;;;;;;0.63;0.60;;;17.70;50.50;;;;;;4899772;29;20188;-76
2021/03/21 01:34:47;;;;;;;0.50;0.50;;;17.60;50.40;;;;;;4899285;29;20212;-70
2021/03/21 01:37:13;;;;;;;0.65;0.65;;;17.70;50.50;;;;;;4898954;29;20176;-72
2021/03/21 01:39:38;;;;;;;0.38;0.38;;;17.60;50.40;;;;;;4897883;29;20184;-73
2021/03/21 01:42:07;;;;;;;1.00;0.63;;;17.60;50.40;;;;;;4899715;29;20169;-73
2021/03/21 01:44:32;;;;;;;0.50;0.50;;;17.70;50.50;;;;;;4882685;29;20542;-73
2021/03/21 01:46:58;;;;;;;0.57;0.57;;;17.60;50.40;;;;;;4882366;29;20173;-74
2021/03/21 01:49:37;;;;;;;0.60;0.60;;;17.60;50.40;;;;;;4899673;29;20579;-76
2021/03/21 01:52:03;;;;;;;1.00;0.40;;;17.60;50.40;;;;;;4898645;29;20184;-75
2021/03/21 01:54:29;;;;;;;1.60;0.60;;;17.60;50.40;;;;;;4882051;29;20216;-77
2021/03/21 01:56:55;;;;;;;0.80;0.80;;;17.60;50.50;;;;;;4882687;29;20224;-75
2021/03/21 01:59:26;;;;;;;0.50;0.50;;;17.60;50.40;;;;;;4882958;29;20179;-75
2021/03/21 02:01:52;;;;;;;0.50;0.50;;;17.60;50.50;;;;;;4897708;29;20176;-76
2021/03/21 02:04:18;;;;;;;0.60;0.60;;;17.50;50.40;;;;;;4898289;29;20233;-74
2021/03/21 02:07:31;;;;;;;0.50;0.50;;;17.50;50.40;;;;;;4881633;29;20213;-74
2021/03/21 02:10:38;;;;;;;0.70;0.40;;;17.50;50.40;;;;;;4846608;29;20657;-74
2021/03/21 02:13:11;;;;;;;0.52;0.52;;;17.50;50.40;;;;;;4898551;29;20189;-73
2021/03/21 02:15:59;;;;;;;0.65;0.65;;;17.50;50.50;;;;;;4897193;29;20312;-72
2021/03/21 02:18:43;;;;;;;0.73;0.50;;;17.50;50.40;;;;;;4898062;29;20680;-74
2021/03/21 02:21:11;;;;;;;0.40;0.40;;;17.50;50.50;;;;;;4897947;29;20180;-74
2021/03/21 02:24:09;;;;;;;0.57;0.57;;;17.50;50.50;;;;;;4897040;29;20180;-71
2021/03/21 02:26:40;;;;;;;0.60;0.60;;;17.50;50.50;;;;;;4875615;29;20200;-73
2021/03/21 02:29:31;;;;;;;0.40;0.40;;;17.50;50.50;;;;;;4898388;29;20255;-73
2021/03/21 02:32:14;;;;;;;0.40;0.40;;;17.50;50.50;;;;;;4897850;29;20196;-73
2021/03/21 02:35:06;;;;;;;0.60;0.50;;;17.40;50.40;;;;;;4881641;29;20582;-74
2021/03/21 02:37:58;;;;;;;0.47;0.47;;;17.40;50.40;;;;;;4897090;29;20172;-73
2021/03/21 02:40:29;;;;;;;0.47;0.47;;;17.40;50.50;;;;;;4881191;29;20325;-74
2021/03/21 02:43:09;;;;;;;0.50;0.45;;;17.40;50.50;;;;;;4897117;29;20618;-74
2021/03/21 02:45:37;;;;;;;0.40;0.40;;;17.40;51.10;;;;;;4881461;29;20191;-75
2021/03/21 02:48:10;;;;;;;0.40;0.40;;;17.40;50.50;;;;;;4882048;29;20168;-76
2021/03/21 02:50:47;;;;;;;0.68;0.50;;;17.40;50.50;;;;;;4880995;29;20216;-73
2021/03/21 02:53:20;;;;;;;0.50;0.50;;;17.40;50.50;;;;;;4866305;29;20208;-75
2021/03/21 02:55:48;;;;;;;0.50;0.50;;;17.40;50.50;;;;;;4881569;29;20555;-74
2021/03/21 02:58:19;;;;;;;0.47;0.47;;;17.40;50.50;;;;;;4881183;29;20655;-76
2021/03/21 03:00:48;;;;;;;0.85;0.60;;;17.30;51.10;;;;;;4881823;29;20219;-77
2021/03/21 03:03:15;;;;;;;0.47;0.47;;;17.30;50.50;;;;;;4881758;29;20224;-76
2021/03/21 03:05:47;;;;;;;0.55;0.30;;;17.30;50.50;;;;;;4865125;29;20208;-75
2021/03/21 03:08:39;;;;;;;0.40;0.40;;;17.30;51.00;;;;;;4865961;29;20537;-74
2021/03/21 03:11:18;;;;;;;0.50;0.50;;;17.40;50.50;;;;;;4896372;29;20177;-72
2021/03/21 03:13:50;;;;;;;0.50;0.40;;;17.30;50.50;;;;;;4897054;29;20204;-71
2021/03/21 03:16:28;;;;;;;0.30;0.30;;;17.30;50.50;;;;;;4881632;29;20202;-73
2021/03/21 03:19:10;;;;;;;0.55;0.55;;;17.30;50.50;;;;;;4880975;29;20243;-73
2021/03/21 03:21:50;;;;;;;0.30;0.30;;;17.30;50.60;;;;;;4880730;29;20184;-74
2021/03/21 03:24:36;;;;;;;0.40;0.40;;;17.30;50.50;;;;;;4896876;29;20172;-72
2021/03/21 03:27:14;;;;;;;0.32;0.32;;;17.30;50.60;;;;;;4880590;29;20650;-76
2021/03/21 03:29:43;;;;;;;0.60;0.60;;;17.30;50.60;;;;;;4896565;29;20183;-75
2021/03/21 03:32:13;;;;;;;0.82;0.60;;;17.30;50.60;;;;;;4880433;29;20176;-76
2021/03/21 03:34:41;;;;;;;0.40;0.40;;;17.20;50.50;;;;;;4880658;29;20242;-73
2021/03/21 03:37:06;;;;;;;0.40;0.40;;;17.20;50.50;;;;;;4896656;29;20176;-73
2021/03/21 03:39:34;;;;;;;0.50;0.50;;;17.20;50.50;;;;;;4895772;29;20177;-73
2021/03/21 03:42:06;;;;;;;0.40;0.40;;;17.20;51.10;;;;;;4897757;29;20176;-75
2021/03/21 03:44:40;;;;;;;0.50;0.50;;;17.20;50.50;;;;;;4896172;29;20169;-73
2021/03/21 03:47:33;;;;;;;1.25;0.40;;;17.20;50.60;;;;;;4896008;29;20181;-73
2021/03/21 03:50:19;;;;;;;0.40;0.40;;;17.20;50.50;;;;;;4896241;29;20191;-74
2021/03/21 03:52:47;;;;;;;0.45;0.45;;;17.20;50.50;;;;;;4881005;29;20208;-75
2021/03/21 03:55:21;;;;;;;0.60;0.60;;;17.20;50.60;;;;;;4895833;29;20237;-74
2021/03/21 03:58:01;;;;;;;0.38;0.38;;;17.20;50.60;;;;;;4896393;29;20255;-73
2021/03/21 04:00:35;;;;;;;0.32;0.32;;;17.20;51.20;;;;;;4895725;29;20176;-74
2021/03/21 04:03:48;;;;;;;0.50;0.50;;;17.20;50.60;;;;;;4880825;29;20264;-76
2021/03/21 04:06:19;;;;;;;0.40;0.40;;;17.20;50.60;;;;;;4839833;29;20252;-76
2021/03/21 04:09:07;;;;;;;0.40;0.40;;;17.10;50.60;;;;;;4885701;29;20236;-72
2021/03/21 04:11:37;;;;;;;0.40;0.40;;;17.20;50.60;;;;;;4897247;29;20177;-72
2021/03/21 04:14:30;;;;;;;0.50;0.50;;;17.10;50.60;;;;;;4896258;29;20243;-72
2021/03/21 04:17:19;;;;;;;0.50;0.50;;;17.10;50.60;;;;;;4874827;29;20192;-72
2021/03/21 04:20:05;;;;;;;0.40;0.40;;;17.10;50.60;;;;;;4880751;29;20188;-73
2021/03/21 04:22:33;;;;;;;0.40;0.40;;;17.10;50.60;;;;;;4879638;29;20177;-73
2021/03/21 04:25:02;;;;;;;0.45;0.43;;;17.10;50.60;;;;;;4880606;29;20173;-74
2021/03/21 04:27:41;;;;;;;0.52;0.52;;;17.10;50.60;;;;;;4880369;29;20306;-74
2021/03/21 04:30:14;;;;;;;0.40;0.40;;;17.10;50.70;;;;;;4880059;29;20184;-74
2021/03/21 04:32:42;;;;;;;0.38;0.38;;;17.10;50.70;;;;;;4881332;29;20181;-75
2021/03/21 04:35:12;;;;;;;0.55;0.55;;;17.10;50.70;;;;;;4883984;29;20243;-71
2021/03/21 04:37:38;;;;;;;0.50;0.50;;;17.10;50.70;;;;;;4899021;29;20210;-72
2021/03/21 04:40:04;;;;;;;0.50;0.50;;;17.00;50.70;;;;;;4899709;29;20267;-74
2021/03/21 04:42:52;;;;;;;0.47;0.35;;;17.10;50.70;;;;;;4883215;29;20188;-73
2021/03/21 04:45:19;;;;;;;0.40;0.40;;;17.10;50.70;;;;;;4883901;29;20252;-73
2021/03/21 04:47:57;;;;;;;0.60;0.60;;;17.00;50.60;;;;;;4884213;29;20177;-74
2021/03/21 04:50:23;;;;;;;0.40;0.40;;;17.00;50.70;;;;;;4898769;29;20187;-73
2021/03/21 04:52:52;;;;;;;0.50;0.50;;;17.00;50.70;;;;;;4883993;29;20177;-74
2021/03/21 04:55:21;;;;;;;0.47;0.47;;;17.00;50.70;;;;;;4899518;29;20366;-76
2021/03/21 04:57:49;;;;;;;0.50;0.50;;;17.00;50.70;;;;;;4883143;29;20228;-73
2021/03/21 05:00:40;;;;;;;0.90;0.43;;;17.00;50.70;;;;;;4883914;29;20251;-76
2021/03/21 05:03:25;;;;;;;0.40;0.40;;;17.00;50.70;;;;;;4897802;29;20197;-74
2021/03/21 05:06:03;;;;;;;0.40;0.40;;;16.90;51.40;;;;;;4883149;29;20679;-76
2021/03/21 05:08:33;;;;;;;0.52;0.52;;;17.00;50.80;;;;;;4883433;29;20180;-75
2021/03/21 05:11:00;;;;;;;0.47;0.47;;;16.90;50.70;;;;;;4882935;29;20208;-73
2021/03/21 05:13:51;;;;;;;0.40;0.40;;;17.00;50.80;;;;;;4883393;29;20238;-72
2021/03/21 05:16:36;;;;;;;0.50;0.50;;;17.00;50.70;;;;;;4883811;29;20180;-73
2021/03/21 05:19:12;;;;;;;0.60;0.50;;;17.00;50.80;;;;;;4898724;29;20660;-73
2021/03/21 05:21:50;;;;;;;0.50;0.50;;;16.90;50.70;;;;;;4898906;29;20183;-75
2021/03/21 05:24:22;;;;;;;0.40;0.30;;;16.90;50.80;;;;;;4898935;29;20182;-76
2021/03/21 05:27:12;;;;;;;0.60;0.50;;;16.90;51.00;;;;;;4899634;29;20180;-69
2021/03/21 05:30:11;;;;;;;0.50;0.50;;;16.90;50.70;;;;;;4883272;29;20173;-73
2021/03/21 05:32:37;;;;;;;0.55;0.55;;;16.90;50.80;;;;;;4899335;29;20179;-73
2021/03/21 05:35:04;;;;;;;0.60;0.60;;;16.90;50.80;;;;;;4898671;29;20212;-73
2021/03/21 05:37:50;;;;;;;0.40;0.40;;;16.90;50.80;;;;;;4882840;29;20601;-73
2021/03/21 05:40:44;;;;;;;0.50;0.50;;;16.90;50.80;;;;;;4898392;29;20182;-74
2021/03/21 05:43:25;;;;;;;0.50;0.50;;;16.90;50.80;;;;;;4899512;29;20177;-74
2021/03/21 05:46:12;;;;;;;0.40;0.40;;;16.90;50.80;;;;;;4882266;29;20179;-72
2021/03/21 05:49:10;;;;;;;0.68;0.68;;;16.90;50.80;;;;;;4882909;29;20315;-72
2021/03/21 05:52:13;;;;;;;0.40;0.40;;;16.90;50.80;;;;;;4899436;29;20177;-72
2021/03/21 05:54:48;;;;;;;0.50;0.50;;;16.90;50.90;;;;;;4898673;29;20222;-72
2021/03/21 05:57:52;;;;;;;0.95;0.80;;;16.80;50.80;;;;;;4898386;29;20219;-76
2021/03/21 06:00:33;;;;;;;0.60;0.60;;;16.90;50.80;;;;;;4899007;29;20263;-74
2021/03/21 06:03:01;;;;;;;0.57;0.57;;;16.80;50.90;;;;;;4882818;29;20545;-76
2021/03/21 06:05:36;;;;;;;0.40;0.40;;;16.80;50.90;;;;;;4899237;29;20176;-74
2021/03/21 06:08:18;;;;;;;0.60;0.60;;;16.80;50.90;;;;;;4898854;29;20176;-72
2021/03/21 06:10:47;;;;;;;0.50;0.50;;;16.80;50.80;;;;;;4882653;29;20641;-73
2021/03/21 06:13:27;;;;;;;0.50;0.50;;;16.90;51.60;;;;;;4899303;29;20214;-73
2021/03/21 06:16:44;;;;;;;0.68;0.45;;;16.90;50.90;;;;;;4897464;29;20673;-70
2021/03/21 06:19:30;;;;;;;0.98;0.40;;;17.10;50.70;;;;;;4841469;29;20193;-74
2021/03/21 06:22:17;;;;;;;0.50;0.50;;;17.40;50.60;;;;;;4840720;29;20194;-75
2021/03/21 06:25:27;;;;;;;0.40;0.40;;;17.60;50.30;;;;;;4883878;29;20544;-75
2021/03/21 06:28:11;;;;;;;0.45;0.40;;;17.80;49.90;;;;;;4883877;29;20191;-70
2021/03/21 06:30:52;;;;;;;0.65;0.55;;;18.00;49.60;;;;;;4898775;29;20180;-72
2021/03/21 06:33:36;;;;;;;0.93;0.45;;;18.20;49.40;;;;;;4882055;29;20169;-72
2021/03/21 06:36:12;;;;;;;0.32;0.32;;;18.30;49.40;;;;;;4898216;29;20177;-73
2021/03/21 06:38:56;;;;;;;0.30;0.30;;;18.30;49.20;;;;;;4897412;29;20232;-72
2021/03/21 06:41:43;;;;;;;0.40;0.40;;;18.50;48.80;;;;;;4898635;29;20169;-73
2021/03/21 06:44:36;;;;;;;0.40;0.40;;;18.60;48.40;;;;;;4896704;29;20703;-74
2021/03/21 06:47:21;;;;;;;0.35;0.35;;;18.70;48.30;;;;;;4898711;29;20240;-73
2021/03/21 06:50:05;;;;;;;0.45;0.45;;;18.80;48.30;;;;;;4898054;29;20231;-71
2021/03/21 06:52:49;;;;;;;0.45;0.40;;;18.80;48.20;;;;;;4898467;29;20188;-74
2021/03/21 06:55:49;;;;;;;0.50;0.50;;;18.90;48.10;;;;;;4896922;29;20212;-75
2021/03/21 06:58:48;;;;;;;0.40;0.40;;;18.90;48.10;;;;;;4897015;29;20679;-76
2021/03/21 07:01:26;;;;;;;0.90;0.60;;;18.80;48.30;;;;;;4898429;29;20173;-74
2021/03/21 07:04:17;;;;;;;0.55;0.40;;;18.70;48.30;;;;;;4881164;29;20180;-75
2021/03/21 07:07:07;;;;;;;0.38;0.38;;;18.60;48.50;;;;;;4898061;29;20237;-74
2021/03/21 07:09:53;;;;;;;0.40;0.30;;;18.60;48.70;;;;;;4897954;29;20599;-74
2021/03/21 07:12:24;;;;;;;0.55;0.40;;;18.40;48.90;;;;;;4897544;29;20260;-66
2021/03/21 07:15:27;;;;;;;0.40;0.40;;;18.40;49.10;;;;;;4881207;29;20303;-74
2021/03/21 07:18:23;;;;;;;0.88;0.40;;;18.30;49.20;;;;;;4897644;29;20172;-72
2021/03/21 07:21:11;;;;;;;0.50;0.50;;;18.20;49.40;;;;;;4897878;29;20667;-68
2021/03/21 07:24:03;;;;;;;0.30;0.30;;;18.10;49.50;;;;;;4897404;29;20243;-73
2021/03/21 07:27:00;;;;;;;0.40;0.40;;;18.00;49.50;;;;;;4896879;29;20207;-74
2021/03/21 07:29:42;;;;;;;0.30;0.30;;;17.90;49.70;;;;;;4897688;29;20180;-76
2021/03/21 07:32:44;;;;;;;0.70;0.40;;;17.90;49.90;;;;;;4865041;29;20176;-75
2021/03/21 07:35:38;;;;;;;0.40;0.40;;;17.90;50.00;;;;;;4896444;29;20783;-73
2021/03/21 07:38:45;;;;;;;0.30;0.30;;;18.00;49.90;;;;;;4897949;29;20219;-75
2021/03/21 07:41:36;;;;;;;0.52;0.32;;;17.90;49.80;;;;;;4827817;29;20674;-74
2021/03/21 07:44:29;;;;;;;0.60;0.60;;;18.00;49.80;;;;;;4858383;29;20210;-75
2021/03/21 07:47:31;;;;;;;0.68;0.30;;;17.90;49.90;;;;;;4889996;29;20672;-73
2021/03/21 07:50:09;;;;;;;0.70;0.50;;;17.90;49.90;;;;;;4897590;29;20183;-75
2021/03/21 07:52:39;;;;;;;0.43;0.40;;;17.80;49.90;;;;;;4896753;29;20169;-74
2021/03/21 07:55:46;;;;;;;0.50;0.40;;;17.80;50.00;;;;;;4896353;29;20208;-75
2021/03/21 07:58:22;;;;;;;0.30;0.30;;;17.80;50.10;;;;;;4897185;29;20212;-76
2021/03/21 08:00:48;;;;;;;0.65;0.35;;;17.80;50.10;;;;;;4880118;29;20180;-70
2021/03/21 08:03:30;;;;;;;0.28;0.28;;;17.90;50.10;;;;;;4896467;29;20180;-75
2021/03/21 08:05:56;;;;;;;0.88;0.50;;;17.90;50.00;;;;;;4880661;29;20640;-67
2021/03/21 08:08:27;;;;;;;0.73;0.47;;;18.00;50.00;;;;;;4899414;29;20279;-74
2021/03/21 08:11:01;;;;;;;3.17;1.02;;;18.00;50.30;;;;;;4884513;29;20641;-75
2021/03/21 08:13:35;;;;;;;2.22;1.08;;;17.90;50.20;;;;;;4899592;29;20248;-66
2021/03/21 08:16:01;;;;;;;2.45;1.27;;;17.90;50.50;;;;;;4901256;29;20186;-65
2021/03/21 08:18:31;;;;;;;1.92;1.00;;;17.90;50.50;;;;;;4868597;29;20606;-67
2021/03/21 08:20:59;;;;;;;3.10;0.93;;;17.80;50.60;;;;;;4883681;29;20180;-78
2021/03/21 08:23:39;;;;;;;2.53;1.00;;;17.90;50.90;;;;;;4884259;29;20237;-78
2021/03/21 08:26:08;;;;;;;2.03;1.05;;;17.90;51.00;;;;;;4900028;29;20271;-82
2021/03/21 08:28:37;;;;;;;5.00;1.17;;;17.90;51.10;;;;;;4888773;29;20187;-75
2021/03/21 08:31:06;;;;;;;4.50;1.60;;;17.90;51.00;;;;;;4910284;29;20176;-81
2021/03/21 08:33:35;;;;;;;1.48;1.00;;;17.90;51.70;;;;;;4905293;29;20196;-75
2021/03/21 08:36:23;;;;;;;3.67;1.27;;;17.90;51.10;;;;;;4900674;29;20237;-76
2021/03/21 08:39:20;;;;;;;3.13;1.35;;;17.80;51.00;;;;;;4881115;29;20272;-77
2021/03/21 08:41:49;;;;;;;2.83;1.38;;;17.80;51.10;;;;;;4881661;29;20181;-68
2021/03/21 08:44:28;;;;;;;5.10;1.55;;;17.80;51.10;;;;;;4880849;29;20173;-80
2021/03/21 08:46:53;;;;;;;2.45;1.00;;;17.80;51.80;;;;;;4882607;29;20175;-80
2021/03/21 08:49:20;;;;;;;3.67;1.30;;;17.70;51.20;;;;;;4883211;29;20550;-75
2021/03/21 08:51:46;;;;;;;2.70;1.20;;;17.70;51.30;;;;;;4884127;29;20658;-76
2021/03/21 08:54:13;;;;;;;3.38;1.17;;;17.70;51.30;;;;;;4883736;29;20295;-74
2021/03/21 08:56:40;;;;;;;3.45;1.30;;;17.70;51.60;;;;;;4898534;29;20220;-70
2021/03/21 08:59:06;;;;;;;2.80;1.40;;;17.80;51.70;;;;;;4868508;29;20193;-82
2021/03/21 09:01:31;;;;;;;4.65;1.45;;;17.80;51.50;;;;;;4900453;29;20177;-68
2021/03/21 09:04:16;;;;;;;3.47;1.52;;;17.80;51.30;;;;;;4868826;29;20236;-69
2021/03/21 09:06:46;;;;;;;3.22;1.45;;;17.80;51.30;;;;;;4883326;29;20173;-67
2021/03/21 09:09:28;;;;;;;3.33;1.38;;;17.80;51.30;;;;;;4883641;29;20189;-66
2021/03/21 09:11:55;;;;;;;3.60;1.20;;;17.90;51.50;;;;;;4867494;29;20181;-67
2021/03/21 09:14:25;;;;;;;5.90;1.98;;;17.90;52.10;;;;;;4883180;29;20213;-64
2021/03/21 09:16:53;;;;;;;4.60;1.40;;;17.90;51.40;;;;;;4883015;29;20316;-67
2021/03/21 09:19:23;;;;;;;4.22;1.70;;;17.90;51.50;;;;;;4898224;29;20183;-65
2021/03/21 09:21:48;;;;;;;3.55;1.33;;;18.00;51.40;;;;;;4900084;29;20182;-67
2021/03/21 09:24:22;;;;;;;4.10;1.70;;;18.00;51.30;;;;;;4898319;29;20252;-68
2021/03/21 09:26:49;;;;;;;4.05;1.35;;;18.00;51.90;;;;;;4899056;29;20175;-67
2021/03/21 09:29:21;;;;;;;3.08;1.30;;;17.90;51.20;;;;;;4898849;29;20177;-69
2021/03/21 09:31:47;;;;;;;2.97;1.30;;;17.90;51.20;;;;;;4898245;29;20193;-66
2021/03/21 09:34:54;;;;;;;4.35;1.52;;;17.90;51.20;;;;;;4882765;29;20295;-67
2021/03/21 09:37:21;;;;;;;4.72;1.50;;;17.90;51.20;;;;;;4877129;29;20562;-66
2021/03/21 09:39:53;;;;;;;2.95;1.50;;;17.90;51.20;;;;;;4882617;29;20188;-67
2021/03/21 09:42:19;;;;;;;4.05;1.20;;;17.90;51.20;;;;;;4882760;29;20173;-64
2021/03/21 09:44:46;;;;;;;5.30;1.50;;;18.00;51.20;;;;;;4882978;29;20180;-62
2021/03/21 09:47:25;;;;;;;2.90;1.33;;;18.00;51.20;;;;;;4899347;29;20248;-64
2021/03/21 09:50:13;;;;;;;3.38;1.35;;;18.00;51.10;;;;;;4883689;29;20213;-67
2021/03/21 09:53:07;;;;;;;3.03;1.48;;;18.00;51.00;;;;;;4889303;29;20195;-69
2021/03/21 09:55:35;;;;;;;4.05;1.65;;;18.00;50.90;;;;;;4884390;29;20271;-63
2021/03/21 09:58:20;;;;;;;3.40;1.48;;;18.00;51.10;;;;;;4899368;29;20377;-69
2021/03/21 10:01:09;;;;;;;2.20;1.30;;;18.00;51.30;;;;;;4883561;29;20264;-66
2021/03/21 10:03:35;;;;;;;4.32;1.65;;;18.00;51.40;;;;;;4882318;29;20172;-69
2021/03/21 10:06:21;;;;;;;2.60;1.33;;;18.00;51.40;;;;;;4881984;29;20521;-61
2021/03/21 10:09:11;;;;;;;5.15;1.95;;;17.90;51.40;;;;;;4883900;29;20271;-63
2021/03/21 10:11:37;;;;;;;4.65;1.52;;;17.90;51.30;;;;;;4867177;29;20551;-64
2021/03/21 10:14:21;;;;;;;5.75;2.00;;;17.90;51.20;;;;;;4866026;29;20708;-63
2021/03/21 10:16:48;;;;;;;4.85;1.73;;;18.00;51.30;;;;;;4899379;29;20165;-63
2021/03/21 10:19:13;;;;;;;4.80;1.65;;;17.90;51.20;;;;;;4882539;29;20610;-63
2021/03/21 10:21:41;;;;;;;5.05;1.90;;;18.00;51.10;;;;;;4881372;29;20259;-63
2021/03/21 10:24:14;;;;;;;6.25;2.15;;;18.00;51.00;;;;;;4866712;29;20181;-67
2021/03/21 10:27:11;;;;;;;6.00;2.15;;;18.00;51.10;;;;;;4898671;29;20715;-63
2021/03/21 10:29:40;;;;;;;5.25;1.90;;;18.00;51.00;;;;;;4898206;29;20184;-64
2021/03/21 10:32:22;;;;;;;7.13;2.33;;;18.00;50.90;;;;;;4898232;29;20637;-62
2021/03/21 10:34:49;;;;;;;6.13;1.90;;;18.00;50.70;;;;;;4881331;29;20263;-67
2021/03/21 10:37:43;;;;;;;3.47;1.55;;;18.00;50.80;;;;;;4882100;29;20175;-65
2021/03/21 10:40:23;;;;;;;4.18;1.77;;;17.90;50.80;;;;;;4898597;29;20192;-68
2021/03/21 10:42:52;;;;;;;6.68;2.67;;;17.90;50.90;;;;;;4898067;29;20183;-64
2021/03/21 10:45:31;;;;;;;5.28;1.80;;;17.90;50.90;;;;;;4898515;29;20176;-63
2021/03/21 10:47:57;;;;;;;7.28;1.90;;;17.90;50.80;;;;;;4897532;29;20177;-64
2021/03/21 10:50:29;;;;;;;6.93;2.40;;;17.90;50.70;;;;;;4880868;29;20184;-69
2021/03/21 10:53:14;;;;;;;7.45;2.20;;;17.90;50.70;;;;;;4898591;29;20650;-70
2021/03/21 10:56:02;;;;;;;5.53;2.05;;;17.90;50.70;;;;;;4896274;29;20581;-70
2021/03/21 10:58:51;;;;;;;7.45;2.38;;;17.90;50.60;;;;;;4896961;29;20255;-65
2021/03/21 11:01:17;;;;;;;3.78;2.10;;;18.00;50.60;;;;;;4897323;29;20176;-64
2021/03/21 11:03:59;;;;;;;4.95;1.83;;;17.90;50.60;;;;;;4897252;29;20547;-68
2021/03/21 11:06:27;;;;;;;4.40;1.92;;;18.00;50.70;;;;;;4896991;29;20176;-64
2021/03/21 11:08:52;;;;;;;5.50;2.75;;;18.00;50.60;;;;;;4897005;29;20172;-65
2021/03/21 11:11:42;;;;;;;6.20;2.28;;;18.10;50.50;;;;;;4896439;29;20717;-63
2021/03/21 11:14:17;;;;;;;5.13;2.47;;;18.10;50.40;;;;;;4897624;29;20288;-64
2021/03/21 11:16:54;;;;;;;4.78;2.10;;;18.10;50.40;;;;;;4897238;29;20228;-60
2021/03/21 11:19:20;;;;;;;5.85;2.30;;;18.10;50.30;;;;;;4897950;29;20516;-61
2021/03/21 11:21:45;;;;;;;5.40;2.15;;;18.10;50.40;;;;;;4897075;29;20177;-68
2021/03/21 11:24:31;;;;;;;5.45;2.40;;;18.10;50.30;;;;;;4896045;29;20172;-61
2021/03/21 11:26:58;;;;;;;7.18;2.95;;;18.10;50.30;;;;;;4897890;29;20551;-70
2021/03/21 11:29:35;;;;;;;8.80;2.60;;;18.00;50.40;;;;;;4896678;29;20181;-62
2021/03/21 11:32:21;;;;;;;6.82;2.63;;;18.00;50.40;;;;;;4897205;29;20176;-61
2021/03/21 11:35:07;;;;;;;5.05;2.38;;;18.00;50.40;;;;;;4896551;29;20223;-67
2021/03/21 11:37:41;;;;;;;6.65;2.35;;;18.00;50.50;;;;;;4870984;29;20668;-72
2021/03/21 11:40:23;;;;;;;4.68;1.90;;;18.00;50.50;;;;;;4880460;29;20663;-73
2021/03/21 11:43:10;;;;;;;5.22;2.42;;;18.10;50.50;;;;;;4889500;29;20228;-72
2021/03/21 11:45:37;;;;;;;6.00;2.15;;;18.10;50.50;;;;;;4873252;29;20195;-69
2021/03/21 11:48:09;;;;;;;7.05;2.50;;;18.00;50.50;;;;;;4905586;29;20192;-77
2021/03/21 11:50:35;;;;;;;4.47;2.00;;;18.10;50.60;;;;;;4905562;29;20180;-77
2021/03/21 11:53:02;;;;;;;5.00;1.98;;;18.10;50.60;;;;;;4880330;29;20180;-71
2021/03/21 11:55:30;;;;;;;7.35;2.33;;;18.10;50.60;;;;;;4864817;29;20244;-70
2021/03/21 11:58:14;;;;;;;7.53;2.60;;;18.10;50.70;;;;;;4880853;29;20224;-69
2021/03/21 12:00:42;;;;;;;4.15;1.90;;;18.10;50.60;;;;;;4896556;29;20248;-71
2021/03/21 12:03:16;;;;;;;5.93;2.10;;;18.10;50.70;;;;;;4880672;29;20196;-72
2021/03/21 12:05:43;;;;;;;5.50;2.45;;;18.10;51.50;;;;;;4879840;29;20256;-72
2021/03/21 12:08:15;;;;;;;6.50;2.40;;;18.10;50.80;;;;;;4880659;29;20671;-69
2021/03/21 12:10:42;;;;;;;4.53;1.95;;;18.00;50.90;;;;;;4896914;29;20185;-69
2021/03/21 12:13:30;;;;;;;6.30;2.53;;;18.00;50.90;;;;;;4864619;29;20188;-67
2021/03/21 12:15:56;;;;;;;9.30;2.55;;;18.00;51.10;;;;;;4880968;29;20191;-79
2021/03/21 12:18:23;;;;;;;5.25;2.30;;;17.90;51.10;;;;;;4897227;29;20173;-71
2021/03/21 12:20:54;;;;;;;4.50;1.92;;;17.90;51.00;;;;;;4896537;29;20563;-70
2021/03/21 12:23:32;;;;;;;7.60;2.42;;;17.90;51.00;;;;;;4880586;29;20177;-70
2021/03/21 12:26:14;;;;;;;7.68;2.20;;;17.90;51.00;;;;;;4897121;29;20592;-70
2021/03/21 12:29:01;;;;;;;9.10;2.80;;;17.90;51.00;;;;;;4879770;29;20180;-66
2021/03/21 12:31:39;;;;;;;4.20;2.17;;;17.90;50.90;;;;;;4896819;29;20172;-71
2021/03/21 12:34:21;;;;;;;6.45;2.00;;;17.90;50.90;;;;;;4879628;29;20208;-71
2021/03/21 12:37:07;;;;;;;4.32;2.22;;;17.90;51.00;;;;;;4880458;29;20201;-70
2021/03/21 12:39:35;;;;;;;4.88;2.17;;;17.90;51.00;;;;;;4895654;29;20201;-70
2021/03/21 12:42:00;;;;;;;6.88;2.20;;;17.80;51.00;;;;;;4879695;29;20673;-72
2021/03/21 12:44:30;;;;;;;4.32;1.77;;;17.80;51.00;;;;;;4895610;29;20208;-72
2021/03/21 12:47:25;;;;;;;4.82;2.35;;;17.80;51.00;;;;;;4895906;29;20171;-71
2021/03/21 12:49:51;;;;;;;5.28;2.15;;;17.80;51.00;;;;;;4895097;29;20672;-71
2021/03/21 12:52:42;;;;;;;4.07;1.88;;;17.80;51.00;;;;;;4895841;29;20584;-63
2021/03/21 12:55:09;;;;;;;3.67;1.83;;;17.80;51.00;;;;;;4899376;29;20216;-73
2021/03/21 12:57:34;;;;;;;5.57;2.42;;;17.80;51.00;;;;;;4867809;29;20660;-71
2021/03/21 13:00:00;;;;;;;4.95;2.20;;;17.80;51.00;;;;;;4883681;29;20200;-72
2021/03/21 13:02:34;;;;;;;6.32;2.22;;;17.80;51.00;;;;;;4899562;29;20606;-71
2021/03/21 13:05:02;;;;;;;5.78;1.95;;;17.80;51.00;;;;;;4899330;29;20168;-72
2021/03/21 13:07:28;;;;;;;5.53;2.00;;;17.80;51.00;;;;;;4900189;29;20172;-71
2021/03/21 13:09:54;;;;;;;4.00;1.90;;;17.80;51.10;;;;;;4867329;29;20183;-71
2021/03/21 13:12:20;;;;;;;3.97;1.70;;;17.90;51.50;;;;;;4883338;29;20187;-67
2021/03/21 13:14:46;;;;;;;5.38;2.25;;;17.90;50.80;;;;;;4883385;29;20209;-67
2021/03/21 13:17:12;;;;;;;4.38;2.15;;;17.90;50.90;;;;;;4898483;29;20260;-62
2021/03/21 13:19:38;;;;;;;4.25;2.58;;;17.90;50.90;;;;;;4899933;29;20513;-61
2021/03/21 13:22:04;;;;;;;4.88;2.00;;;17.80;50.90;;;;;;4883230;29;20632;-68
2021/03/21 13:24:30;;;;;;;8.35;2.70;;;17.80;51.00;;;;;;4898153;29;20185;-62
2021/03/21 13:26:56;;;;;;;6.93;2.40;;;17.80;51.00;;;;;;4900140;29;20188;-62
2021/03/21 13:29:21;;;;;;;6.07;1.95;;;17.80;50.90;;;;;;4883035;29;20188;-62
2021/03/21 13:31:47;;;;;;;4.70;2.20;;;17.80;50.90;;;;;;4899466;29;20172;-64
2021/03/21 13:34:13;;;;;;;3.67;1.95;;;17.80;50.80;;;;;;4898551;29;20546;-64